sensor_id;sensor_type;location;lat;lon;timestamp;pressure;altitude;pressure_sealevel;temperature;humidity
3122;BME280;1571;52.524;14.104;2022-08-05T00:00:22;100532.94;;;25.29;60.74
3122;BME280;1571;52.524;14.104;2022-08-05T00:02:52;100522.94;;;25.37;60.30
3122;BME280;1571;52.524;14.104;2022-08-05T00:05:20;100524.84;;;25.36;61.62
3122;BME280;1571;52.524;14.104;2022-08-05T00:08:09;100524.59;;;25.31;61.15
3122;BME280;1571;52.524;14.104;2022-08-05T00:11:00;100524.00;;;25.36;61.48
3122;BME280;1571;52.524;14.104;2022-08-05T00:13:30;100521.56;;;25.19;61.24
3122;BME280;1571;52.524;14.104;2022-08-05T00:16:06;100520.81;;;25.10;61.53
3122;BME280;1571;52.524;14.104;2022-08-05T00:18:40;100517.44;;;25.02;61.39
3122;BME280;1571;52.524;14.104;2022-08-05T00:21:10;100524.94;;;25.00;61.06
3122;BME280;1571;52.524;14.104;2022-08-05T00:23:41;100524.28;;;24.98;61.34
3122;BME280;1571;52.524;14.104;2022-08-05T00:26:20;100523.00;;;24.93;62.15
3122;BME280;1571;52.524;14.104;2022-08-05T00:28:49;100527.31;;;24.88;62.00
3122;BME280;1571;52.524;14.104;2022-08-05T00:31:18;100528.13;;;24.82;62.25
3122;BME280;1571;52.524;14.104;2022-08-05T00:34:06;100522.28;;;24.85;62.10
3122;BME280;1571;52.524;14.104;2022-08-05T00:36:54;100526.41;;;24.81;62.20
3122;BME280;1571;52.524;14.104;2022-08-05T00:39:40;100507.63;;;24.58;62.95
3122;BME280;1571;52.524;14.104;2022-08-05T00:42:34;100521.66;;;24.61;62.75
3122;BME280;1571;52.524;14.104;2022-08-05T00:45:05;100510.78;;;24.61;62.74
3122;BME280;1571;52.524;14.104;2022-08-05T00:47:37;100520.34;;;24.57;63.14
3122;BME280;1571;52.524;14.104;2022-08-05T00:50:23;100514.00;;;24.50;63.55
3122;BME280;1571;52.524;14.104;2022-08-05T00:52:52;100507.94;;;24.48;63.43
3122;BME280;1571;52.524;14.104;2022-08-05T00:55:21;100508.00;;;24.55;63.14
3122;BME280;1571;52.524;14.104;2022-08-05T00:58:11;100513.09;;;24.64;63.06
3122;BME280;1571;52.524;14.104;2022-08-05T01:00:40;100519.19;;;24.66;62.30
3122;BME280;1571;52.524;14.104;2022-08-05T01:03:09;100518.88;;;24.55;63.13
3122;BME280;1571;52.524;14.104;2022-08-05T01:05:49;100520.34;;;24.57;62.84
3122;BME280;1571;52.524;14.104;2022-08-05T01:08:20;100524.88;;;24.50;62.66
3122;BME280;1571;52.524;14.104;2022-08-05T01:11:11;100518.47;;;24.58;62.52
3122;BME280;1571;52.524;14.104;2022-08-05T01:13:56;100518.28;;;24.44;63.56
3122;BME280;1571;52.524;14.104;2022-08-05T01:16:30;100523.16;;;24.49;62.84
3122;BME280;1571;52.524;14.104;2022-08-05T01:19:08;100513.91;;;24.43;62.97
3122;BME280;1571;52.524;14.104;2022-08-05T01:21:57;100512.78;;;24.38;63.67
3122;BME280;1571;52.524;14.104;2022-08-05T01:25:02;100505.41;;;24.31;63.49
3122;BME280;1571;52.524;14.104;2022-08-05T01:28:04;100513.75;;;24.30;63.48
3122;BME280;1571;52.524;14.104;2022-08-05T01:30:39;100515.91;;;24.35;63.33
3122;BME280;1571;52.524;14.104;2022-08-05T01:33:22;100509.69;;;24.41;63.76
3122;BME280;1571;52.524;14.104;2022-08-05T01:35:54;100510.56;;;24.41;62.91
3122;BME280;1571;52.524;14.104;2022-08-05T01:38:24;100510.41;;;24.28;63.29
3122;BME280;1571;52.524;14.104;2022-08-05T01:40:57;100507.72;;;24.13;63.84
3122;BME280;1571;52.524;14.104;2022-08-05T01:43:29;100499.38;;;24.15;64.37
3122;BME280;1571;52.524;14.104;2022-08-05T01:46:00;100507.25;;;24.09;64.07
3122;BME280;1571;52.524;14.104;2022-08-05T01:48:44;100502.03;;;24.08;64.08
3122;BME280;1571;52.524;14.104;2022-08-05T01:51:17;100500.63;;;24.12;64.54
3122;BME280;1571;52.524;14.104;2022-08-05T01:53:47;100500.31;;;24.07;63.95
3122;BME280;1571;52.524;14.104;2022-08-05T01:56:28;100500.16;;;24.08;64.68
3122;BME280;1571;52.524;14.104;2022-08-05T01:59:20;100492.41;;;23.90;64.64
3122;BME280;1571;52.524;14.104;2022-08-05T02:01:53;100497.47;;;23.94;64.94
3122;BME280;1571;52.524;14.104;2022-08-05T02:04:27;100487.66;;;23.93;64.83
3122;BME280;1571;52.524;14.104;2022-08-05T02:06:56;100494.47;;;23.88;65.19
3122;BME280;1571;52.524;14.104;2022-08-05T02:09:29;100488.31;;;23.80;65.23
3122;BME280;1571;52.524;14.104;2022-08-05T02:12:03;100487.94;;;23.83;64.64
3122;BME280;1571;52.524;14.104;2022-08-05T02:14:41;100482.25;;;23.78;65.05
3122;BME280;1571;52.524;14.104;2022-08-05T02:17:16;100489.63;;;23.69;65.33
3122;BME280;1571;52.524;14.104;2022-08-05T02:20:13;100477.56;;;23.72;65.60
3122;BME280;1571;52.524;14.104;2022-08-05T02:22:54;100480.81;;;23.67;65.73
3122;BME280;1571;52.524;14.104;2022-08-05T02:25:25;100476.88;;;23.55;66.12
3122;BME280;1571;52.524;14.104;2022-08-05T02:28:01;100486.44;;;23.36;66.19
3122;BME280;1571;52.524;14.104;2022-08-05T02:30:40;100486.59;;;23.19;67.36
3122;BME280;1571;52.524;14.104;2022-08-05T02:33:21;100486.16;;;23.31;67.23
3122;BME280;1571;52.524;14.104;2022-08-05T02:36:03;100486.78;;;23.33;66.69
3122;BME280;1571;52.524;14.104;2022-08-05T02:38:36;100489.09;;;23.21;66.88
3122;BME280;1571;52.524;14.104;2022-08-05T02:41:06;100477.63;;;23.19;68.03
3122;BME280;1571;52.524;14.104;2022-08-05T02:43:45;100481.34;;;23.18;67.76
3122;BME280;1571;52.524;14.104;2022-08-05T02:46:35;100485.28;;;23.30;67.07
3122;BME280;1571;52.524;14.104;2022-08-05T02:49:27;100488.97;;;22.99;67.78
3122;BME280;1571;52.524;14.104;2022-08-05T02:52:06;100484.75;;;22.97;68.22
3122;BME280;1571;52.524;14.104;2022-08-05T02:54:36;100484.25;;;22.93;68.06
3122;BME280;1571;52.524;14.104;2022-08-05T02:57:10;100488.84;;;22.93;68.73
3122;BME280;1571;52.524;14.104;2022-08-05T03:00:00;100495.78;;;22.72;68.42
3122;BME280;1571;52.524;14.104;2022-08-05T03:02:33;100512.31;;;22.54;68.90
3122;BME280;1571;52.524;14.104;2022-08-05T03:05:07;100511.22;;;22.86;68.30
3122;BME280;1571;52.524;14.104;2022-08-05T03:07:37;100512.31;;;23.00;67.65
3122;BME280;1571;52.524;14.104;2022-08-05T03:10:26;100505.25;;;22.91;69.38
3122;BME280;1571;52.524;14.104;2022-08-05T03:12:55;100517.88;;;22.99;68.87
3122;BME280;1571;52.524;14.104;2022-08-05T03:15:22;100507.91;;;22.53;70.32
3122;BME280;1571;52.524;14.104;2022-08-05T03:17:52;100509.75;;;22.30;70.97
3122;BME280;1571;52.524;14.104;2022-08-05T03:20:24;100514.75;;;22.41;70.93
3122;BME280;1571;52.524;14.104;2022-08-05T03:22:53;100524.75;;;21.93;72.27
3122;BME280;1571;52.524;14.104;2022-08-05T03:25:24;100525.81;;;21.83;73.19
3122;BME280;1571;52.524;14.104;2022-08-05T03:28:20;100516.41;;;22.11;72.50
3122;BME280;1571;52.524;14.104;2022-08-05T03:30:49;100511.25;;;22.32;71.98
3122;BME280;1571;52.524;14.104;2022-08-05T03:33:22;100516.19;;;22.20;72.60
3122;BME280;1571;52.524;14.104;2022-08-05T03:36:11;100512.63;;;22.20;72.59
3122;BME280;1571;52.524;14.104;2022-08-05T03:38:40;100519.28;;;22.09;73.15
3122;BME280;1571;52.524;14.104;2022-08-05T03:41:18;100524.53;;;21.63;75.70
3122;BME280;1571;52.524;14.104;2022-08-05T03:43:50;100523.00;;;21.60;77.44
3122;BME280;1571;52.524;14.104;2022-08-05T03:46:37;100519.41;;;21.76;76.88
3122;BME280;1571;52.524;14.104;2022-08-05T03:49:07;100513.25;;;21.43;78.40
3122;BME280;1571;52.524;14.104;2022-08-05T03:51:39;100521.91;;;21.06;78.71
3122;BME280;1571;52.524;14.104;2022-08-05T03:54:33;100509.19;;;21.47;78.29
3122;BME280;1571;52.524;14.104;2022-08-05T03:57:25;100496.88;;;21.53;80.03
3122;BME280;1571;52.524;14.104;2022-08-05T04:00:11;100508.34;;;21.38;80.68
3122;BME280;1571;52.524;14.104;2022-08-05T04:02:44;100504.25;;;21.67;79.39
3122;BME280;1571;52.524;14.104;2022-08-05T04:05:27;100511.59;;;21.42;79.44
3122;BME280;1571;52.524;14.104;2022-08-05T04:08:01;100507.69;;;21.45;79.63
3122;BME280;1571;52.524;14.104;2022-08-05T04:10:48;100517.50;;;21.13;80.19
3122;BME280;1571;52.524;14.104;2022-08-05T04:15:48;100509.19;;;21.47;78.95
3122;BME280;1571;52.524;14.104;2022-08-05T04:18:30;100514.09;;;21.27;80.33
3122;BME280;1571;52.524;14.104;2022-08-05T04:21:02;100499.94;;;21.41;80.84
3122;BME280;1571;52.524;14.104;2022-08-05T04:23:33;100505.97;;;21.52;82.02
3122;BME280;1571;52.524;14.104;2022-08-05T04:26:21;100503.19;;;21.76;78.57
3122;BME280;1571;52.524;14.104;2022-08-05T04:28:50;100506.66;;;22.01;79.21
3122;BME280;1571;52.524;14.104;2022-08-05T04:31:18;100505.53;;;21.88;79.87
3122;BME280;1571;52.524;14.104;2022-08-05T04:33:47;100508.66;;;21.60;82.22
3122;BME280;1571;52.524;14.104;2022-08-05T04:36:37;100512.06;;;21.54;82.89
3122;BME280;1571;52.524;14.104;2022-08-05T04:39:15;100509.69;;;22.07;80.23
3122;BME280;1571;52.524;14.104;2022-08-05T04:41:44;100502.00;;;22.18;79.97
3122;BME280;1571;52.524;14.104;2022-08-05T04:44:14;100507.84;;;22.38;80.43
3122;BME280;1571;52.524;14.104;2022-08-05T04:46:55;100506.66;;;22.41;80.10
3122;BME280;1571;52.524;14.104;2022-08-05T04:49:24;100506.22;;;22.52;80.46
3122;BME280;1571;52.524;14.104;2022-08-05T04:52:14;100503.41;;;22.69;81.75
3122;BME280;1571;52.524;14.104;2022-08-05T04:54:42;100503.63;;;22.82;80.78
3122;BME280;1571;52.524;14.104;2022-08-05T04:57:10;100500.28;;;23.03;79.93
3122;BME280;1571;52.524;14.104;2022-08-05T04:59:38;100502.81;;;23.04;78.42
3122;BME280;1571;52.524;14.104;2022-08-05T05:02:07;100501.13;;;23.03;78.27
3122;BME280;1571;52.524;14.104;2022-08-05T05:04:55;100515.41;;;22.89;76.98
3122;BME280;1571;52.524;14.104;2022-08-05T05:07:30;100516.22;;;22.75;81.17
3122;BME280;1571;52.524;14.104;2022-08-05T05:10:02;100511.47;;;22.77;81.11
3122;BME280;1571;52.524;14.104;2022-08-05T05:12:32;100519.47;;;22.70;77.01
3122;BME280;1571;52.524;14.104;2022-08-05T05:15:03;100520.47;;;22.92;75.88
3122;BME280;1571;52.524;14.104;2022-08-05T05:17:37;100510.41;;;23.39;77.54
3122;BME280;1571;52.524;14.104;2022-08-05T05:20:22;100509.22;;;23.56;75.56
3122;BME280;1571;52.524;14.104;2022-08-05T05:22:56;100511.84;;;23.49;74.23
3122;BME280;1571;52.524;14.104;2022-08-05T05:25:25;100511.09;;;23.56;73.94
3122;BME280;1571;52.524;14.104;2022-08-05T05:28:06;100510.53;;;24.05;73.10
3122;BME280;1571;52.524;14.104;2022-08-05T05:30:35;100503.91;;;24.44;72.22
3122;BME280;1571;52.524;14.104;2022-08-05T05:33:05;100501.34;;;24.57;71.28
3122;BME280;1571;52.524;14.104;2022-08-05T05:35:43;100510.41;;;24.86;71.60
3122;BME280;1571;52.524;14.104;2022-08-05T05:38:15;100499.13;;;24.67;70.90
3122;BME280;1571;52.524;14.104;2022-08-05T05:40:54;100503.22;;;24.78;69.63
3122;BME280;1571;52.524;14.104;2022-08-05T05:43:23;100496.13;;;25.05;68.47
3122;BME280;1571;52.524;14.104;2022-08-05T05:46:11;100508.13;;;25.39;66.75
3122;BME280;1571;52.524;14.104;2022-08-05T05:48:45;100504.06;;;25.57;65.91
3122;BME280;1571;52.524;14.104;2022-08-05T05:51:19;100514.69;;;25.86;64.10
3122;BME280;1571;52.524;14.104;2022-08-05T05:53:49;100524.28;;;25.82;61.67
3122;BME280;1571;52.524;14.104;2022-08-05T05:56:26;100525.88;;;25.70;62.17
3122;BME280;1571;52.524;14.104;2022-08-05T05:59:00;100530.53;;;25.76;61.86
3122;BME280;1571;52.524;14.104;2022-08-05T06:01:33;100531.88;;;25.93;61.66
3122;BME280;1571;52.524;14.104;2022-08-05T06:04:05;100522.38;;;26.17;62.33
3122;BME280;1571;52.524;14.104;2022-08-05T06:06:38;100533.22;;;26.11;60.42
3122;BME280;1571;52.524;14.104;2022-08-05T06:09:09;100529.94;;;26.22;61.45
3122;BME280;1571;52.524;14.104;2022-08-05T06:11:44;100527.50;;;26.47;61.09
3122;BME280;1571;52.524;14.104;2022-08-05T06:14:26;100521.38;;;26.38;62.50
3122;BME280;1571;52.524;14.104;2022-08-05T06:16:55;100518.06;;;26.43;62.90
3122;BME280;1571;52.524;14.104;2022-08-05T06:19:24;100520.69;;;26.10;62.43
3122;BME280;1571;52.524;14.104;2022-08-05T06:22:01;100521.19;;;26.33;62.77
3122;BME280;1571;52.524;14.104;2022-08-05T06:24:35;100508.31;;;26.69;61.72
3122;BME280;1571;52.524;14.104;2022-08-05T06:27:03;100509.81;;;26.98;61.28
3122;BME280;1571;52.524;14.104;2022-08-05T06:29:43;100508.53;;;26.81;60.37
3122;BME280;1571;52.524;14.104;2022-08-05T06:32:31;100521.13;;;27.28;57.79
3122;BME280;1571;52.524;14.104;2022-08-05T06:34:59;100522.53;;;27.71;56.59
3122;BME280;1571;52.524;14.104;2022-08-05T06:37:41;100535.56;;;27.55;57.22
3122;BME280;1571;52.524;14.104;2022-08-05T06:40:25;100548.94;;;27.97;54.85
3122;BME280;1571;52.524;14.104;2022-08-05T06:42:58;100557.09;;;28.03;54.80
3122;BME280;1571;52.524;14.104;2022-08-05T06:45:26;100561.91;;;28.08;55.66
3122;BME280;1571;52.524;14.104;2022-08-05T06:48:14;100565.72;;;27.80;56.02
3122;BME280;1571;52.524;14.104;2022-08-05T06:51:03;100566.44;;;27.43;56.79
3122;BME280;1571;52.524;14.104;2022-08-05T06:53:35;100570.03;;;28.21;54.43
3122;BME280;1571;52.524;14.104;2022-08-05T06:56:07;100583.16;;;28.51;53.69
3122;BME280;1571;52.524;14.104;2022-08-05T06:58:52;100594.09;;;28.44;54.02
3122;BME280;1571;52.524;14.104;2022-08-05T07:01:22;100596.78;;;27.73;56.46
3122;BME280;1571;52.524;14.104;2022-08-05T07:03:59;100611.44;;;27.12;57.27
3122;BME280;1571;52.524;14.104;2022-08-05T07:06:29;100626.06;;;26.97;57.33
3122;BME280;1571;52.524;14.104;2022-08-05T07:08:58;100622.31;;;27.05;57.59
3122;BME280;1571;52.524;14.104;2022-08-05T07:11:32;100617.31;;;27.02;57.32
3122;BME280;1571;52.524;14.104;2022-08-05T07:14:06;100619.56;;;26.92;57.02
3122;BME280;1571;52.524;14.104;2022-08-05T07:16:56;100625.13;;;27.25;56.64
3122;BME280;1571;52.524;14.104;2022-08-05T07:19:47;100618.84;;;27.25;57.70
3122;BME280;1571;52.524;14.104;2022-08-05T07:22:36;100610.63;;;27.38;58.75
3122;BME280;1571;52.524;14.104;2022-08-05T07:25:05;100600.38;;;27.47;59.24
3122;BME280;1571;52.524;14.104;2022-08-05T07:27:55;100606.41;;;27.82;58.74
3122;BME280;1571;52.524;14.104;2022-08-05T07:30:34;100594.25;;;27.78;59.42
3122;BME280;1571;52.524;14.104;2022-08-05T07:33:07;100601.00;;;27.62;58.80
3122;BME280;1571;52.524;14.104;2022-08-05T07:35:43;100600.53;;;27.78;58.39
3122;BME280;1571;52.524;14.104;2022-08-05T07:38:32;100594.03;;;27.99;57.65
3122;BME280;1571;52.524;14.104;2022-08-05T07:41:15;100593.75;;;28.21;57.20
3122;BME280;1571;52.524;14.104;2022-08-05T07:44:06;100600.13;;;28.01;56.52
3122;BME280;1571;52.524;14.104;2022-08-05T07:46:45;100598.84;;;28.04;56.56
3122;BME280;1571;52.524;14.104;2022-08-05T07:49:15;100600.84;;;28.35;55.88
3122;BME280;1571;52.524;14.104;2022-08-05T07:51:44;100611.38;;;28.18;56.74
3122;BME280;1571;52.524;14.104;2022-08-05T07:54:22;100610.38;;;28.06;57.43
3122;BME280;1571;52.524;14.104;2022-08-05T07:57:00;100606.88;;;27.72;58.91
3122;BME280;1571;52.524;14.104;2022-08-05T07:59:45;100608.09;;;27.90;58.61
3122;BME280;1571;52.524;14.104;2022-08-05T08:02:15;100617.91;;;28.24;58.42
3122;BME280;1571;52.524;14.104;2022-08-05T08:04:45;100625.47;;;28.22;58.46
3122;BME280;1571;52.524;14.104;2022-08-05T08:07:14;100626.44;;;28.86;57.94
3122;BME280;1571;52.524;14.104;2022-08-05T08:09:44;100628.59;;;28.77;57.82
3122;BME280;1571;52.524;14.104;2022-08-05T08:12:14;100632.41;;;28.11;59.21
3122;BME280;1571;52.524;14.104;2022-08-05T08:15:05;100648.00;;;28.62;58.26
3122;BME280;1571;52.524;14.104;2022-08-05T08:17:42;100638.94;;;28.69;57.79
3122;BME280;1571;52.524;14.104;2022-08-05T08:20:19;100629.13;;;28.93;57.71
3122;BME280;1571;52.524;14.104;2022-08-05T08:23:07;100644.06;;;28.38;59.04
3122;BME280;1571;52.524;14.104;2022-08-05T08:25:56;100638.00;;;28.88;57.43
3122;BME280;1571;52.524;14.104;2022-08-05T08:28:27;100637.47;;;29.04;56.64
3122;BME280;1571;52.524;14.104;2022-08-05T08:31:16;100637.94;;;29.58;55.38
3122;BME280;1571;52.524;14.104;2022-08-05T08:33:45;100642.72;;;29.70;55.40
3122;BME280;1571;52.524;14.104;2022-08-05T08:36:19;100648.50;;;29.30;56.69
3122;BME280;1571;52.524;14.104;2022-08-05T08:39:07;100637.47;;;29.04;56.91
3122;BME280;1571;52.524;14.104;2022-08-05T08:41:43;100634.53;;;28.68;58.04
3122;BME280;1571;52.524;14.104;2022-08-05T08:44:31;100616.59;;;28.85;58.03
3122;BME280;1571;52.524;14.104;2022-08-05T08:47:23;100628.00;;;29.14;58.66
3122;BME280;1571;52.524;14.104;2022-08-05T08:50:11;100628.13;;;28.87;58.91
3122;BME280;1571;52.524;14.104;2022-08-05T08:53:01;100640.78;;;29.77;57.50
3122;BME280;1571;52.524;14.104;2022-08-05T08:55:38;100635.97;;;29.15;58.72
3122;BME280;1571;52.524;14.104;2022-08-05T08:58:27;100650.16;;;30.24;56.55
3122;BME280;1571;52.524;14.104;2022-08-05T09:01:14;100644.50;;;29.82;56.25
3122;BME280;1571;52.524;14.104;2022-08-05T09:03:47;100644.31;;;29.20;57.97
3122;BME280;1571;52.524;14.104;2022-08-05T09:06:22;100633.13;;;28.45;59.91
3122;BME280;1571;52.524;14.104;2022-08-05T09:08:57;100636.78;;;28.77;59.02
3122;BME280;1571;52.524;14.104;2022-08-05T09:11:26;100638.44;;;29.23;57.96
3122;BME280;1571;52.524;14.104;2022-08-05T09:14:14;100649.41;;;28.78;58.94
3122;BME280;1571;52.524;14.104;2022-08-05T09:17:05;100649.03;;;28.68;58.07
3122;BME280;1571;52.524;14.104;2022-08-05T09:19:37;100665.56;;;28.80;57.78
3122;BME280;1571;52.524;14.104;2022-08-05T09:22:25;100667.78;;;28.44;58.51
3122;BME280;1571;52.524;14.104;2022-08-05T09:24:59;100663.47;;;28.17;57.91
3122;BME280;1571;52.524;14.104;2022-08-05T09:27:39;100683.63;;;28.02;58.14
3122;BME280;1571;52.524;14.104;2022-08-05T09:30:27;100666.41;;;28.09;57.81
3122;BME280;1571;52.524;14.104;2022-08-05T09:33:00;100673.28;;;28.31;57.18
3122;BME280;1571;52.524;14.104;2022-08-05T09:35:33;100671.13;;;28.60;57.21
3122;BME280;1571;52.524;14.104;2022-08-05T09:38:05;100662.50;;;28.63;56.79
3122;BME280;1571;52.524;14.104;2022-08-05T09:40:44;100659.13;;;29.06;56.34
3122;BME280;1571;52.524;14.104;2022-08-05T09:43:25;100653.91;;;29.36;56.26
3122;BME280;1571;52.524;14.104;2022-08-05T09:46:23;100662.00;;;29.18;55.03
3122;BME280;1571;52.524;14.104;2022-08-05T09:48:55;100661.22;;;29.42;54.01
3122;BME280;1571;52.524;14.104;2022-08-05T09:51:44;100665.69;;;28.98;54.75
3122;BME280;1571;52.524;14.104;2022-08-05T09:54:16;100660.25;;;28.92;55.11
3122;BME280;1571;52.524;14.104;2022-08-05T09:56:55;100671.13;;;28.60;55.59
3122;BME280;1571;52.524;14.104;2022-08-05T09:59:28;100666.97;;;28.96;56.05
3122;BME280;1571;52.524;14.104;2022-08-05T10:02:03;100672.88;;;28.86;55.25
3122;BME280;1571;52.524;14.104;2022-08-05T10:04:36;100669.44;;;29.04;55.15
3122;BME280;1571;52.524;14.104;2022-08-05T10:07:08;100670.75;;;28.95;55.38
3122;BME280;1571;52.524;14.104;2022-08-05T10:09:54;100670.69;;;29.72;54.35
3122;BME280;1571;52.524;14.104;2022-08-05T10:12:42;100673.53;;;30.27;52.52
3122;BME280;1571;52.524;14.104;2022-08-05T10:15:19;100684.84;;;29.87;53.18
3122;BME280;1571;52.524;14.104;2022-08-05T10:18:11;100690.38;;;29.80;53.19
3122;BME280;1571;52.524;14.104;2022-08-05T10:20:44;100676.38;;;29.95;52.68
3122;BME280;1571;52.524;14.104;2022-08-05T10:23:18;100669.72;;;29.59;52.91
3122;BME280;1571;52.524;14.104;2022-08-05T10:26:08;100681.66;;;30.15;52.25
3122;BME280;1571;52.524;14.104;2022-08-05T10:28:41;100691.75;;;29.64;53.46
3122;BME280;1571;52.524;14.104;2022-08-05T10:31:12;100684.91;;;29.23;54.01
3122;BME280;1571;52.524;14.104;2022-08-05T10:34:01;100684.94;;;29.48;53.41
3122;BME280;1571;52.524;14.104;2022-08-05T10:36:33;100671.78;;;29.39;53.91
3122;BME280;1571;52.524;14.104;2022-08-05T10:39:06;100670.63;;;29.21;54.36
3122;BME280;1571;52.524;14.104;2022-08-05T10:41:54;100660.47;;;28.90;53.77
3122;BME280;1571;52.524;14.104;2022-08-05T10:44:28;100643.16;;;28.71;54.46
3122;BME280;1571;52.524;14.104;2022-08-05T10:47:09;100643.13;;;28.78;54.55
3122;BME280;1571;52.524;14.104;2022-08-05T10:50:03;100651.44;;;28.38;55.83
3122;BME280;1571;52.524;14.104;2022-08-05T10:52:52;100673.50;;;28.23;55.65
3122;BME280;1571;52.524;14.104;2022-08-05T10:55:26;100694.47;;;28.49;54.49
3122;BME280;1571;52.524;14.104;2022-08-05T10:58:08;100702.41;;;28.64;54.28
3122;BME280;1571;52.524;14.104;2022-08-05T11:00:37;100711.44;;;28.71;54.44
3122;BME280;1571;52.524;14.104;2022-08-05T11:03:13;100707.06;;;28.37;55.28
3122;BME280;1571;52.524;14.104;2022-08-05T11:06:18;100692.25;;;27.86;56.68
3122;BME280;1571;52.524;14.104;2022-08-05T11:09:18;100694.72;;;27.41;58.26
3122;BME280;1571;52.524;14.104;2022-08-05T11:12:40;100683.84;;;27.61;57.99
3122;BME280;1571;52.524;14.104;2022-08-05T11:15:18;100670.59;;;27.25;59.29
3122;BME280;1571;52.524;14.104;2022-08-05T11:17:48;100650.16;;;26.39;64.62
3122;BME280;1571;52.524;14.104;2022-08-05T11:20:41;100660.22;;;25.32;72.77
3122;BME280;1571;52.524;14.104;2022-08-05T11:23:32;100673.69;;;25.41;76.10
3122;BME280;1571;52.524;14.104;2022-08-05T11:26:22;100684.78;;;24.88;83.91
3122;BME280;1571;52.524;14.104;2022-08-05T11:28:56;100681.28;;;24.72;86.52
3122;BME280;1571;52.524;14.104;2022-08-05T11:31:37;100672.00;;;24.82;91.07
3122;BME280;1571;52.524;14.104;2022-08-05T11:34:38;100650.78;;;24.92;88.47
3122;BME280;1571;52.524;14.104;2022-08-05T11:37:58;100645.03;;;24.80;92.29
3122;BME280;1571;52.524;14.104;2022-08-05T11:40:58;100659.88;;;24.48;90.38
3122;BME280;1571;52.524;14.104;2022-08-05T11:43:54;100677.00;;;24.63;89.78
3122;BME280;1571;52.524;14.104;2022-08-05T11:46:37;100685.56;;;24.37;93.52
3122;BME280;1571;52.524;14.104;2022-08-05T11:49:26;100689.78;;;24.25;92.81
3122;BME280;1571;52.524;14.104;2022-08-05T11:51:54;100698.84;;;24.47;93.70
3122;BME280;1571;52.524;14.104;2022-08-05T11:54:25;100701.69;;;24.54;95.76
3122;BME280;1571;52.524;14.104;2022-08-05T11:57:02;100711.22;;;24.35;99.51
3122;BME280;1571;52.524;14.104;2022-08-05T11:59:50;100692.00;;;23.92;97.29
3122;BME280;1571;52.524;14.104;2022-08-05T12:02:26;100710.59;;;23.95;96.22
3122;BME280;1571;52.524;14.104;2022-08-05T12:04:59;100724.09;;;23.80;100.00
3122;BME280;1571;52.524;14.104;2022-08-05T12:07:44;100722.66;;;23.92;100.00
3122;BME280;1571;52.524;14.104;2022-08-05T12:10:35;100717.41;;;23.90;100.00
3122;BME280;1571;52.524;14.104;2022-08-05T12:13:11;100730.53;;;24.02;100.00
3122;BME280;1571;52.524;14.104;2022-08-05T12:15:43;100725.31;;;24.00;100.00
3122;BME280;1571;52.524;14.104;2022-08-05T12:18:18;100731.97;;;24.27;100.00
3122;BME280;1571;52.524;14.104;2022-08-05T12:20:50;100735.59;;;24.20;100.00
3122;BME280;1571;52.524;14.104;2022-08-05T12:23:18;100733.56;;;24.37;100.00
3122;BME280;1571;52.524;14.104;2022-08-05T12:25:48;100733.81;;;25.01;100.00
3122;BME280;1571;52.524;14.104;2022-08-05T12:28:30;100729.38;;;25.30;96.71
3122;BME280;1571;52.524;14.104;2022-08-05T12:30:59;100725.22;;;25.55;93.36
3122;BME280;1571;52.524;14.104;2022-08-05T12:33:30;100734.44;;;25.54;95.51
3122;BME280;1571;52.524;14.104;2022-08-05T12:36:04;100719.44;;;25.59;92.40
3122;BME280;1571;52.524;14.104;2022-08-05T12:38:36;100734.97;;;25.65;89.34
3122;BME280;1571;52.524;14.104;2022-08-05T12:41:07;100736.25;;;25.47;91.98
3122;BME280;1571;52.524;14.104;2022-08-05T12:43:50;100735.97;;;25.85;90.33
3122;BME280;1571;52.524;14.104;2022-08-05T12:46:20;100737.28;;;25.89;88.23
3122;BME280;1571;52.524;14.104;2022-08-05T12:49:00;100726.69;;;25.51;89.05
3122;BME280;1571;52.524;14.104;2022-08-05T12:51:43;100731.84;;;25.25;87.26
3122;BME280;1571;52.524;14.104;2022-08-05T12:54:32;100741.44;;;24.91;88.58
3122;BME280;1571;52.524;14.104;2022-08-05T12:57:01;100741.22;;;25.07;87.87
3122;BME280;1571;52.524;14.104;2022-08-05T12:59:43;100745.97;;;25.57;82.69
3122;BME280;1571;52.524;14.104;2022-08-05T13:02:34;100737.09;;;26.19;80.38
3122;BME280;1571;52.524;14.104;2022-08-05T13:05:07;100730.06;;;26.60;77.56
3122;BME280;1571;52.524;14.104;2022-08-05T13:07:41;100737.09;;;26.19;78.44
3122;BME280;1571;52.524;14.104;2022-08-05T13:10:30;100746.81;;;26.63;78.32
3122;BME280;1571;52.524;14.104;2022-08-05T13:12:58;100750.38;;;26.64;74.53
3122;BME280;1571;52.524;14.104;2022-08-05T13:15:29;100749.19;;;26.73;74.52
3122;BME280;1571;52.524;14.104;2022-08-05T13:18:16;100743.81;;;26.93;73.53
3122;BME280;1571;52.524;14.104;2022-08-05T13:20:47;100747.06;;;26.68;73.38
3122;BME280;1571;52.524;14.104;2022-08-05T13:23:17;100741.25;;;26.50;73.64
3122;BME280;1571;52.524;14.104;2022-08-05T13:25:49;100735.91;;;27.05;69.74
3122;BME280;1571;52.524;14.104;2022-08-05T13:28:27;100740.84;;;27.36;67.38
3122;BME280;1571;52.524;14.104;2022-08-05T13:30:58;100743.47;;;27.09;66.82
3122;BME280;1571;52.524;14.104;2022-08-05T13:33:36;100740.03;;;27.49;67.02
3122;BME280;1571;52.524;14.104;2022-08-05T13:36:26;100740.31;;;27.87;63.51
3122;BME280;1571;52.524;14.104;2022-08-05T13:38:54;100740.09;;;27.95;63.60
3122;BME280;1571;52.524;14.104;2022-08-05T13:41:23;100736.09;;;28.05;63.70
3122;BME280;1571;52.524;14.104;2022-08-05T13:44:02;100730.81;;;28.36;61.66
3122;BME280;1571;52.524;14.104;2022-08-05T13:46:32;100725.16;;;28.31;62.19
3122;BME280;1571;52.524;14.104;2022-08-05T13:49:17;100737.53;;;28.54;60.77
3122;BME280;1571;52.524;14.104;2022-08-05T13:51:46;100726.84;;;28.19;61.34
3122;BME280;1571;52.524;14.104;2022-08-05T13:54:15;100719.06;;;28.29;61.65
3122;BME280;1571;52.524;14.104;2022-08-05T13:56:51;100728.00;;;28.76;60.99
3122;BME280;1571;52.524;14.104;2022-08-05T13:59:21;100729.88;;;29.27;59.13